Time;durP1;ratioP1;P1;durP2;ratioP2;P2;SDS_P1;SDS_P2;PMS_P1;PMS_P2;Temp;Humidity;BMP_temperature;BMP_pressure;BME280_temperature;BME280_humidity;BME280_pressure;Samples;Min_cycle;Max_cycle;Signal;HPM_P1;HPM_P2
2023/04/21 00:02:38;;;;;;;12.73;7.38;;;20.70;53.60;;;;;;10474346;28;20459;-25
2023/04/21 00:07:41;;;;;;;13.88;7.53;;;20.60;53.50;;;;;;10478440;28;20214;-25
2023/04/21 00:12:43;;;;;;;11.48;6.65;;;20.70;53.50;;;;;;10479577;28;20389;-24
2023/04/21 00:17:45;;;;;;;8.73;5.32;;;20.60;53.50;;;;;;10475008;28;20386;-24
2023/04/21 00:22:49;;;;;;;14.77;7.13;;;20.60;53.50;;;;;;10473362;28;20037;-24
2023/04/21 00:27:51;;;;;;;11.80;6.40;;;20.60;53.60;;;;;;10467145;28;20454;-24
2023/04/21 00:32:53;;;;;;;8.23;5.35;;;20.60;53.60;;;;;;10475734;28;20066;-24
2023/04/21 00:37:56;;;;;;;10.95;6.13;;;20.50;53.70;;;;;;10481936;28;20354;-24
2023/04/21 00:42:58;;;;;;;15.95;5.65;;;20.50;53.70;;;;;;10467731;28;20079;-25
2023/04/21 00:48:00;;;;;;;6.85;4.75;;;20.50;53.70;;;;;;10472231;28;20049;-26
2023/04/21 00:53:03;;;;;;;11.82;6.28;;;20.50;53.80;;;;;;10492058;28;20453;-24
2023/04/21 00:58:06;;;;;;;8.23;5.03;;;20.40;53.80;;;;;;10482781;28;20088;-24
2023/04/21 01:03:07;;;;;;;;;;;20.50;53.80;;;;;;10470419;28;20120;-24
2023/04/21 01:08:11;;;;;;;12.52;6.18;;;20.40;53.80;;;;;;10496777;28;19990;-25
2023/04/21 01:13:13;;;;;;;10.02;5.38;;;20.30;53.80;;;;;;10483668;28;20163;-24
2023/04/21 01:18:15;;;;;;;5.40;3.95;;;20.40;53.80;;;;;;10494041;28;20056;-25
2023/04/21 01:23:19;;;;;;;9.00;5.40;;;20.40;53.90;;;;;;10497115;28;20470;-25
2023/04/21 01:28:22;;;;;;;10.18;4.80;;;20.40;53.90;;;;;;10485447;28;20049;-24
2023/04/21 01:33:24;;;;;;;6.82;4.60;;;20.30;53.90;;;;;;10481425;28;20076;-25
2023/04/21 01:38:27;;;;;;;;;;;20.30;53.90;;;;;;10477475;28;20063;-25
2023/04/21 01:43:29;;;;;;;9.30;5.15;;;20.30;54.00;;;;;;10480848;28;20448;-25
2023/04/21 01:48:31;;;;;;;8.50;4.78;;;20.30;54.00;;;;;;10494020;28;20055;-23
2023/04/21 01:53:34;;;;;;;5.32;3.83;;;20.30;54.00;;;;;;10482331;28;20702;-25
2023/04/21 01:58:36;;;;;;;7.03;4.18;;;20.20;53.90;;;;;;10472662;28;20509;-25
2023/04/21 02:03:38;;;;;;;5.60;3.55;;;20.20;54.00;;;;;;10503192;28;20543;-24
2023/04/21 02:08:41;;;;;;;8.85;5.00;;;20.20;54.00;;;;;;10499687;28;20044;-25
2023/04/21 02:13:43;;;;;;;8.32;4.65;;;20.20;54.00;;;;;;10508735;28;20072;-25
2023/04/21 02:18:45;;;;;;;6.55;3.88;;;20.10;54.30;;;;;;10496632;28;20444;-25
2023/04/21 02:23:48;;;;;;;7.10;3.90;;;20.10;54.30;;;;;;10515483;28;20102;-24
2023/04/21 02:28:50;;;;;;;4.68;3.33;;;20.10;54.30;;;;;;10495550;28;20052;-25
2023/04/21 02:33:53;;;;;;;4.93;3.10;;;20.10;54.30;;;;;;10477604;28;20554;-23
2023/04/21 02:38:56;;;;;;;4.28;3.15;;;20.10;54.20;;;;;;10487279;28;20048;-25
2023/04/21 02:43:58;;;;;;;4.45;2.70;;;20.10;54.30;;;;;;10487410;28;20080;-23
2023/04/21 02:49:00;;;;;;;4.18;2.95;;;20.10;54.30;;;;;;10514560;28;20107;-24
2023/04/21 02:54:03;;;;;;;5.78;3.20;;;20.10;54.30;;;;;;10493080;28;20071;-24
2023/04/21 02:59:05;;;;;;;5.50;3.30;;;20.00;54.30;;;;;;10500427;28;20114;-24
2023/04/21 03:04:07;;;;;;;5.07;2.95;;;20.10;54.30;;;;;;10464133;28;20048;-25
2023/04/21 03:09:10;;;;;;;5.35;3.33;;;20.00;54.30;;;;;;10477781;28;20056;-25
2023/04/21 03:14:12;;;;;;;4.30;3.05;;;20.00;54.40;;;;;;10496178;28;20485;-24
2023/04/21 03:19:14;;;;;;;3.25;2.20;;;20.00;54.40;;;;;;10489401;28;20045;-23
2023/04/21 03:24:18;;;;;;;;;;;20.00;54.50;;;;;;10497841;28;20044;-24
2023/04/21 03:29:19;;;;;;;5.93;3.05;;;19.90;54.50;;;;;;10463836;28;20316;-23
2023/04/21 03:34:21;;;;;;;4.40;2.90;;;19.90;54.70;;;;;;10484105;28;20104;-25
2023/04/21 03:39:25;;;;;;;4.78;3.13;;;20.00;54.50;;;;;;10468157;28;20125;-25
2023/04/21 03:44:27;;;;;;;4.30;2.95;;;19.90;54.50;;;;;;10484811;28;20186;-22
2023/04/21 03:49:29;;;;;;;4.18;2.90;;;19.90;54.50;;;;;;10492832;28;20074;-24
2023/04/21 03:54:32;;;;;;;4.68;2.75;;;19.90;54.50;;;;;;10483726;28;20052;-24
2023/04/21 03:59:34;;;;;;;5.85;3.00;;;19.90;54.50;;;;;;10487700;28;20052;-22
2023/04/21 04:04:36;;;;;;;3.83;3.00;;;19.90;54.40;;;;;;10488253;28;20075;-25
2023/04/21 04:09:39;;;;;;;6.93;3.05;;;19.90;54.50;;;;;;10473801;28;20045;-24
2023/04/21 04:14:41;;;;;;;4.28;2.67;;;19.90;54.40;;;;;;10499473;28;20079;-25
2023/04/21 04:19:43;;;;;;;3.60;2.88;;;19.90;54.50;;;;;;10484634;28;20072;-24
2023/04/21 04:24:46;;;;;;;4.05;2.50;;;19.90;54.30;;;;;;10486507;28;20516;-24
2023/04/21 04:29:48;;;;;;;6.18;3.00;;;19.90;54.30;;;;;;10463861;28;20454;-23
2023/04/21 04:34:51;;;;;;;3.92;3.05;;;19.90;54.50;;;;;;10478676;28;20049;-24
2023/04/21 04:39:55;;;;;;;3.25;2.47;;;19.90;54.50;;;;;;10465269;28;20044;-23
2023/04/21 04:44:58;;;;;;;3.75;2.58;;;19.90;54.60;;;;;;10464567;28;20473;-23
2023/04/21 04:50:00;;;;;;;3.97;2.72;;;20.00;54.60;;;;;;10464197;28;20111;-25
2023/04/21 04:55:03;;;;;;;2.60;1.95;;;19.90;55.10;;;;;;10480706;28;20052;-25
2023/04/21 05:00:10;;;;;;;3.63;2.38;;;19.90;55.20;;;;;;10481711;28;20062;-24
2023/04/21 05:05:11;;;;;;;3.45;2.45;;;19.80;55.30;;;;;;10482776;28;20040;-23
2023/04/21 05:10:15;;;;;;;3.47;2.35;;;19.60;56.00;;;;;;10488474;28;20143;-24
2023/04/21 05:15:17;;;;;;;2.05;1.88;;;19.80;55.70;;;;;;10491866;28;20055;-23
2023/04/21 05:20:19;;;;;;;2.30;1.90;;;19.90;55.40;;;;;;10482208;28;20087;-23
2023/04/21 05:25:23;;;;;;;2.95;1.83;;;20.00;55.40;;;;;;10484971;28;20069;-23
2023/04/21 05:30:25;;;;;;;3.42;1.80;;;20.00;55.50;;;;;;10476100;28;20544;-22
2023/04/21 05:35:26;;;;;;;2.85;1.55;;;20.00;55.70;;;;;;10464242;28;20067;-24
2023/04/21 05:40:30;;;;;;;3.03;1.85;;;20.10;55.50;;;;;;10467402;28;20086;-24
2023/04/21 05:45:32;;;;;;;1.98;1.70;;;20.10;55.80;;;;;;10472185;28;20151;-25
2023/04/21 05:50:34;;;;;;;3.05;1.55;;;20.00;55.70;;;;;;10476552;28;20554;-24
2023/04/21 05:55:38;;;;;;;3.30;1.80;;;20.00;55.80;;;;;;10482976;28;20096;-25
2023/04/21 06:00:39;;;;;;;3.67;1.90;;;20.10;55.90;;;;;;10466411;28;20509;-23
2023/04/21 06:05:41;;;;;;;8.40;2.13;;;20.00;55.90;;;;;;10464189;28;20068;-22
2023/04/21 06:10:44;;;;;;;2.40;1.50;;;20.00;56.00;;;;;;10465359;28;20080;-22
2023/04/21 06:15:46;;;;;;;3.17;1.80;;;20.00;55.90;;;;;;10483857;28;20075;-24
2023/04/21 06:20:50;;;;;;;7.78;2.75;;;20.00;56.00;;;;;;10484353;28;20044;-24
2023/04/21 06:26:05;;;;;;;3.25;1.80;;;20.00;56.00;;;;;;10481717;28;20083;-24
2023/04/21 06:31:08;;;;;;;3.15;1.80;;;20.10;56.00;;;;;;10472712;28;20454;-24
2023/04/21 06:36:10;;;;;;;5.32;2.28;;;20.10;56.00;;;;;;10487768;28;20072;-24
2023/04/21 06:41:13;;;;;;;5.72;2.05;;;20.10;56.00;;;;;;10473581;28;20080;-24
2023/04/21 06:46:15;;;;;;;5.88;2.45;;;19.70;56.40;;;;;;10481997;28;20049;-24
2023/04/21 06:51:17;;;;;;;5.60;2.60;;;19.30;57.60;;;;;;10495281;28;20044;-23
2023/04/21 06:56:20;;;;;;;4.22;3.03;;;19.30;57.60;;;;;;10469173;28;20052;-25
2023/04/21 07:01:23;;;;;;;4.72;3.08;;;19.10;57.70;;;;;;10470920;28;20052;-25
2023/04/21 07:06:25;;;;;;;4.90;3.40;;;19.10;57.70;;;;;;10483698;28;20052;-24
2023/04/21 07:11:28;;;;;;;7.88;3.25;;;19.00;58.60;;;;;;10494785;28;20499;-25
2023/04/21 07:16:30;;;;;;;4.68;3.10;;;18.90;58.60;;;;;;10493840;28;20139;-25
2023/04/21 07:21:35;;;;;;;4.25;2.85;;;19.80;56.50;;;;;;10486445;28;20457;-24
2023/04/21 07:26:38;;;;;;;4.03;3.20;;;19.80;56.10;;;;;;10493719;28;20052;-24
2023/04/21 07:31:39;;;;;;;3.22;2.88;;;19.90;55.90;;;;;;10474309;28;20147;-24
2023/04/21 07:36:41;;;;;;;4.50;3.08;;;20.10;55.60;;;;;;10486743;28;20089;-24
2023/04/21 07:41:45;;;;;;;4.63;3.00;;;20.00;55.80;;;;;;10487760;28;20105;-23
2023/04/21 07:46:47;;;;;;;5.47;3.60;;;20.00;55.50;;;;;;10489740;28;20074;-22
2023/04/21 07:51:48;;;;;;;9.52;3.83;;;20.00;55.60;;;;;;10481753;28;20072;-25
2023/04/21 07:56:52;;;;;;;10.23;6.25;;;19.90;55.70;;;;;;10485029;28;20657;-25
2023/04/21 08:01:53;;;;;;;6.05;4.15;;;20.00;55.40;;;;;;10480710;28;20052;-23
2023/04/21 08:06:55;;;;;;;8.23;4.45;;;20.00;55.70;;;;;;10473147;28;20872;-24
2023/04/21 08:11:58;;;;;;;7.32;4.90;;;19.90;55.60;;;;;;10476266;28;20041;-25
2023/04/21 08:17:00;;;;;;;9.82;5.82;;;20.10;55.40;;;;;;10473155;28;20041;-24
2023/04/21 08:22:02;;;;;;;8.57;4.85;;;20.20;55.10;;;;;;10483613;28;20083;-24
2023/04/21 08:27:05;;;;;;;8.18;4.82;;;20.20;55.20;;;;;;10476287;28;20044;-23
2023/04/21 08:32:07;;;;;;;5.40;4.38;;;20.20;55.60;;;;;;10470119;28;20497;-25
2023/04/21 08:37:09;;;;;;;7.75;4.38;;;20.20;55.20;;;;;;10485062;28;20124;-24
2023/04/21 08:42:13;;;;;;;7.63;4.10;;;20.40;55.00;;;;;;10481880;28;20156;-24
2023/04/21 08:47:15;;;;;;;7.35;4.07;;;20.30;55.10;;;;;;10478504;28;20879;-25
2023/04/21 08:52:18;;;;;;;8.27;5.13;;;20.50;54.80;;;;;;10475357;28;20078;-24
2023/04/21 08:57:21;;;;;;;7.25;4.55;;;20.40;55.00;;;;;;10480637;28;20127;-24
2023/04/21 09:02:23;;;;;;;11.25;6.55;;;20.30;55.10;;;;;;10474841;28;20539;-24
2023/04/21 09:07:32;;;;;;;10.18;6.18;;;20.20;55.30;;;;;;10489146;28;20048;-24
2023/04/21 09:12:39;;;;;;;11.63;6.85;;;20.40;55.10;;;;;;10483899;28;20539;-24
2023/04/21 09:17:44;;;;;;;9.27;6.70;;;20.40;54.80;;;;;;10493001;28;20044;-24
2023/04/21 09:22:48;;;;;;;13.27;6.10;;;20.70;54.40;;;;;;10490896;28;20052;-24
2023/04/21 09:27:54;;;;;;;9.95;5.45;;;20.90;53.90;;;;;;10478076;28;20044;-25
2023/04/21 09:32:57;;;;;;;9.73;6.97;;;20.60;54.40;;;;;;10491102;28;20045;-23
2023/04/21 09:38:00;;;;;;;6.95;4.70;;;20.80;54.00;;;;;;10471867;28;20059;-27
2023/04/21 09:43:04;;;;;;;9.85;6.55;;;20.70;54.20;;;;;;10492245;28;20481;-24
2023/04/21 09:48:10;;;;;;;7.18;4.57;;;20.60;54.10;;;;;;10485611;28;20489;-24
2023/04/21 09:53:15;;;;;;;6.65;4.90;;;20.70;54.20;;;;;;10490808;28;20504;-24
2023/04/21 09:58:23;;;;;;;7.22;5.30;;;20.60;54.40;;;;;;10478182;28;20056;-24
2023/04/21 10:03:28;;;;;;;5.70;4.13;;;20.70;54.30;;;;;;10479440;28;20044;-23
2023/04/21 10:08:30;;;;;;;6.32;4.68;;;21.00;53.40;;;;;;10515047;28;20059;-23
2023/04/21 10:13:33;;;;;;;4.80;4.30;;;20.90;53.90;;;;;;10497888;28;20063;-24
2023/04/21 10:18:37;;;;;;;6.05;4.93;;;20.80;54.20;;;;;;10506819;28;20052;-24
2023/04/21 10:23:41;;;;;;;7.47;5.22;;;21.00;53.60;;;;;;10475482;28;20115;-24
2023/04/21 10:28:52;;;;;;;4.85;4.03;;;21.10;53.50;;;;;;10486389;28;20656;-24
2023/04/21 10:34:20;;;;;;;10.15;4.22;;;21.50;52.50;;;;;;10480409;28;20044;-24
2023/04/21 10:39:30;;;;;;;9.00;4.78;;;21.80;51.90;;;;;;10466140;28;20094;-25
2023/04/21 10:44:33;;;;;;;4.53;4.00;;;21.90;51.70;;;;;;10497126;28;20052;-25
2023/04/21 10:49:39;;;;;;;6.53;4.03;;;22.10;51.40;;;;;;10499652;28;20144;-25
2023/04/21 10:54:44;;;;;;;7.20;5.95;;;21.80;51.60;;;;;;10487004;28;20044;-25
2023/04/21 10:59:49;;;;;;;4.72;3.70;;;21.80;52.00;;;;;;10477526;28;20163;-24
2023/04/21 11:04:52;;;;;;;5.10;4.53;;;21.80;52.60;;;;;;10485844;28;20052;-25
2023/04/21 11:09:58;;;;;;;4.47;4.05;;;22.10;51.40;;;;;;10493127;28;20052;-24
2023/04/21 11:15:06;;;;;;;4.22;3.78;;;21.40;52.80;;;;;;10473402;28;20045;-25
2023/04/21 11:20:08;;;;;;;10.75;7.10;;;22.40;50.60;;;;;;10473681;28;20128;-24
2023/04/21 11:25:17;;;;;;;7.80;5.43;;;21.90;51.40;;;;;;10492256;28;20098;-25
2023/04/21 11:30:20;;;;;;;5.95;3.95;;;22.40;50.40;;;;;;10485356;28;20048;-24
2023/04/21 11:35:23;;;;;;;7.03;4.25;;;22.50;50.70;;;;;;10470435;28;20127;-24
2023/04/21 11:40:25;;;;;;;3.17;2.85;;;22.90;49.70;;;;;;10506129;28;20135;-25
2023/04/21 11:45:29;;;;;;;4.07;2.90;;;22.70;50.00;;;;;;10463903;28;20056;-24
2023/04/21 11:50:32;;;;;;;4.00;3.08;;;22.90;49.40;;;;;;10477682;28;20044;-25
2023/04/21 11:55:35;;;;;;;3.03;2.70;;;23.10;49.70;;;;;;10451361;28;20048;-23
2023/04/21 12:00:39;;;;;;;4.28;3.15;;;22.90;50.70;;;;;;10460889;28;20106;-25
2023/04/21 12:05:42;;;;;;;3.50;2.65;;;23.30;49.60;;;;;;10468155;28;20048;-25
2023/04/21 12:10:45;;;;;;;;;;;23.20;50.50;;;;;;10466582;28;20047;-25
2023/04/21 12:15:48;;;;;;;;;;;23.00;50.90;;;;;;10489472;28;19940;-25
2023/04/21 12:20:51;;;;;;;4.25;3.22;;;23.40;50.20;;;;;;10483011;28;19924;-25
2023/04/21 12:25:53;;;;;;;4.13;3.15;;;24.00;48.10;;;;;;10482755;28;20483;-26
2023/04/21 12:30:56;;;;;;;6.85;3.42;;;24.10;48.00;;;;;;10474997;28;20084;-25
2023/04/21 12:35:59;;;;;;;2.92;2.40;;;23.40;50.40;;;;;;10483453;28;20576;-25
2023/04/21 12:41:01;;;;;;;4.40;3.00;;;23.70;49.90;;;;;;10489675;28;20041;-25
2023/04/21 12:46:04;;;;;;;;;;;24.00;48.90;;;;;;10488903;28;20048;-25
2023/04/21 12:51:06;;;;;;;3.92;3.33;;;23.90;49.60;;;;;;10480360;28;19971;-25
2023/04/21 12:56:08;;;;;;;3.60;3.25;;;24.50;47.90;;;;;;10477537;28;20118;-24
2023/04/21 13:01:13;;;;;;;;;;;24.60;47.80;;;;;;10492782;28;20127;-25
2023/04/21 13:06:15;;;;;;;3.70;3.20;;;24.30;48.70;;;;;;10483060;28;20265;-24
2023/04/21 13:11:17;;;;;;;;;;;24.30;49.10;;;;;;10489613;28;20052;-25
2023/04/21 13:16:20;;;;;;;4.20;3.70;;;24.40;49.10;;;;;;10477009;28;19964;-24
2023/04/21 13:21:22;;;;;;;4.60;3.05;;;24.10;48.70;;;;;;10491801;28;20127;-23
2023/04/21 13:26:24;;;;;;;;;;;24.10;49.20;;;;;;10474930;28;20756;-22
2023/04/21 13:31:28;;;;;;;;;;;24.20;48.20;;;;;;10485596;28;19931;-24
2023/04/21 13:36:30;;;;;;;4.40;3.28;;;23.90;49.00;;;;;;10460011;28;19927;-25
2023/04/21 13:41:31;;;;;;;6.78;3.35;;;23.90;49.60;;;;;;10474123;28;20068;-24
2023/04/21 13:46:35;;;;;;;2.97;2.65;;;24.30;49.10;;;;;;10477709;28;20036;-24
2023/04/21 13:51:37;;;;;;;3.40;3.08;;;24.30;48.80;;;;;;10466387;28;20083;-24
2023/04/21 13:56:38;;;;;;;;;;;24.80;48.20;;;;;;10471535;28;20075;-25
2023/04/21 14:01:42;;;;;;;3.17;2.67;;;24.90;48.60;;;;;;10472650;28;19997;-25
2023/04/21 14:06:44;;;;;;;4.10;3.40;;;24.60;48.60;;;;;;10486451;28;20484;-25
2023/04/21 14:11:45;;;;;;;;;;;24.80;47.40;;;;;;10484913;28;20041;-26
2023/04/21 14:16:49;;;;;;;4.50;2.88;;;24.70;48.50;;;;;;10476818;28;19970;-25
2023/04/21 14:21:51;;;;;;;7.10;3.25;;;24.50;48.00;;;;;;10487854;28;20075;-25
2023/04/21 14:26:53;;;;;;;6.20;2.58;;;24.30;48.80;;;;;;10483508;28;20127;-22
2023/04/21 14:31:58;;;;;;;9.02;2.78;;;24.20;49.50;;;;;;10482732;28;20561;-25
2023/04/21 14:37:00;;;;;;;4.07;2.90;;;24.30;49.70;;;;;;10477043;28;20135;-25
2023/04/21 14:42:02;;;;;;;7.82;2.42;;;24.70;48.70;;;;;;10484918;28;20049;-25
2023/04/21 14:47:05;;;;;;;;;;;24.90;48.80;;;;;;10465701;28;20040;-25
2023/04/21 14:52:07;;;;;;;5.80;3.85;;;25.30;47.50;;;;;;10464775;28;20476;-26
2023/04/21 14:57:08;;;;;;;6.03;2.55;;;25.50;47.10;;;;;;10484006;28;20071;-24
2023/04/21 15:02:12;;;;;;;3.72;2.58;;;25.40;47.70;;;;;;10479922;28;20128;-25
2023/04/21 15:07:14;;;;;;;3.67;2.42;;;25.40;47.80;;;;;;10481240;28;20485;-26
2023/04/21 15:12:16;;;;;;;4.25;2.58;;;25.50;48.10;;;;;;10476257;28;20115;-25
2023/04/21 15:17:19;;;;;;;4.53;2.85;;;25.60;47.80;;;;;;10478866;28;20057;-25
2023/04/21 15:22:21;;;;;;;5.35;2.80;;;25.50;48.00;;;;;;10492580;28;20079;-26
2023/04/21 15:27:23;;;;;;;3.55;2.70;;;25.40;48.40;;;;;;10505944;28;20120;-26
2023/04/21 15:32:27;;;;;;;3.85;3.05;;;25.30;48.20;;;;;;10482350;28;20103;-25
2023/04/21 15:37:28;;;;;;;8.60;3.88;;;25.30;49.30;;;;;;10467591;28;20052;-25
2023/04/21 15:42:30;;;;;;;;;;;25.70;47.70;;;;;;10476570;28;20535;-25
2023/04/21 15:47:33;;;;;;;7.40;3.53;;;25.80;48.40;;;;;;10470245;28;20339;-25
2023/04/21 15:52:36;;;;;;;3.50;2.67;;;25.90;47.50;;;;;;10479024;28;20102;-25
2023/04/21 15:57:38;;;;;;;5.65;4.15;;;25.90;49.40;;;;;;10482337;28;20037;-25
2023/04/21 16:02:42;;;;;;;5.60;2.85;;;26.00;47.10;;;;;;10486983;28;20048;-25
2023/04/21 16:07:44;;;;;;;7.53;3.47;;;26.00;49.00;;;;;;10495231;28;20128;-26
2023/04/21 16:12:49;;;;;;;5.47;3.60;;;25.90;48.80;;;;;;10484803;28;20052;-24
2023/04/21 16:17:53;;;;;;;10.88;4.13;;;25.90;48.50;;;;;;10457179;28;20129;-25
2023/04/21 16:22:54;;;;;;;5.38;3.25;;;25.90;48.30;;;;;;10457958;28;20060;-24
2023/04/21 16:27:56;;;;;;;4.88;3.50;;;26.00;51.10;;;;;;10475627;28;20048;-25
2023/04/21 16:33:00;;;;;;;4.68;3.55;;;26.00;49.10;;;;;;10473174;28;20127;-24
2023/04/21 16:38:01;;;;;;;5.15;3.85;;;26.00;48.60;;;;;;10470141;28;20136;-25
2023/04/21 16:43:03;;;;;;;4.55;3.90;;;25.90;49.30;;;;;;10477025;28;20496;-25
2023/04/21 16:48:07;;;;;;;;;;;25.80;49.20;;;;;;10472357;28;20636;-25
2023/04/21 16:53:08;;;;;;;6.55;4.43;;;25.70;48.90;;;;;;10468276;28;20018;-24
2023/04/21 16:58:10;;;;;;;5.05;4.55;;;25.60;49.30;;;;;;10464288;28;20167;-24
2023/04/21 17:03:14;;;;;;;10.40;5.30;;;25.60;49.00;;;;;;10469326;28;20080;-26
2023/04/21 17:08:16;;;;;;;6.68;4.65;;;25.80;54.50;;;;;;10459380;28;20049;-25
2023/04/21 17:13:18;;;;;;;8.55;4.65;;;26.00;56.30;;;;;;10480253;28;20140;-25
2023/04/21 17:18:22;;;;;;;9.15;5.63;;;26.00;57.70;;;;;;10480390;28;20102;-30
2023/04/21 17:23:23;;;;;;;13.90;5.18;;;26.10;56.50;;;;;;10493490;28;20052;-25
2023/04/21 17:28:25;;;;;;;8.65;5.03;;;26.20;61.90;;;;;;10482151;28;20079;-25
2023/04/21 17:33:29;;;;;;;9.48;4.95;;;26.10;55.90;;;;;;10468861;28;20088;-27
2023/04/21 17:38:31;;;;;;;7.55;4.97;;;25.80;53.50;;;;;;10466267;28;20049;-25
2023/04/21 17:43:32;;;;;;;6.72;5.10;;;25.70;52.70;;;;;;10446764;28;20054;-26
2023/04/21 17:48:36;;;;;;;10.38;5.95;;;25.60;52.70;;;;;;10496169;28;20480;-26
2023/04/21 17:53:38;;;;;;;11.63;5.45;;;26.00;56.50;;;;;;10483203;28;20041;-25
2023/04/21 17:58:40;;;;;;;9.10;6.28;;;26.40;59.00;;;;;;10480519;28;20053;-24
2023/04/21 18:03:43;;;;;;;13.63;6.43;;;26.40;56.70;;;;;;10488375;28;20064;-25
2023/04/21 18:08:45;;;;;;;10.02;7.43;;;26.60;58.20;;;;;;10470543;28;20045;-25
2023/04/21 18:13:47;;;;;;;13.05;8.05;;;26.80;54.60;;;;;;10470576;28;20148;-23
2023/04/21 18:18:51;;;;;;;11.90;8.55;;;26.50;53.30;;;;;;10498166;28;20095;-25
2023/04/21 18:23:52;;;;;;;11.75;8.13;;;26.10;52.90;;;;;;10485532;28;20091;-25
2023/04/21 18:28:56;;;;;;;12.65;8.52;;;25.90;53.10;;;;;;10475749;28;20056;-24
2023/04/21 18:34:00;;;;;;;12.98;8.98;;;25.70;53.10;;;;;;10473410;28;20063;-24
2023/04/21 18:39:02;;;;;;;12.93;8.32;;;25.40;54.10;;;;;;10494120;28;20062;-26
2023/04/21 18:44:05;;;;;;;12.15;7.63;;;25.30;53.80;;;;;;10489410;28;20049;-25
2023/04/21 18:49:08;;;;;;;9.48;6.57;;;25.20;53.10;;;;;;10463573;28;20046;-25
2023/04/21 18:54:12;;;;;;;10.57;5.93;;;25.00;52.50;;;;;;10478490;28;20048;-24
2023/04/21 18:59:14;;;;;;;13.13;5.78;;;24.90;52.20;;;;;;10467808;28;20732;-24
2023/04/21 19:04:17;;;;;;;11.93;5.43;;;24.70;52.20;;;;;;10469443;28;20143;-25
2023/04/21 19:09:19;;;;;;;12.48;4.45;;;24.70;52.40;;;;;;10459115;28;20052;-25
2023/04/21 19:14:21;;;;;;;11.57;4.90;;;24.70;52.50;;;;;;10467771;28;20072;-25
2023/04/21 19:19:25;;;;;;;13.23;4.22;;;24.70;52.70;;;;;;10478611;28;20072;-26
2023/04/21 19:24:27;;;;;;;13.18;3.90;;;24.60;52.70;;;;;;10467386;28;20044;-25
2023/04/21 19:29:29;;;;;;;13.82;4.20;;;24.60;52.80;;;;;;10474046;28;20148;-24
2023/04/21 19:34:32;;;;;;;12.43;4.40;;;24.50;53.00;;;;;;10473775;28;20451;-24
2023/04/21 19:39:34;;;;;;;11.77;4.78;;;24.50;53.70;;;;;;10455964;28;20561;-24
2023/04/21 19:44:38;;;;;;;9.02;3.50;;;24.40;53.30;;;;;;10461166;28;20060;-25
2023/04/21 19:49:41;;;;;;;7.25;3.42;;;24.10;53.50;;;;;;10463724;28;20131;-24
2023/04/21 19:54:43;;;;;;;8.30;3.45;;;24.10;53.10;;;;;;10468256;28;20053;-26
2023/04/21 19:59:45;;;;;;;;;;;23.90;53.10;;;;;;10480473;28;20044;-24
2023/04/21 20:04:49;;;;;;;6.30;2.90;;;23.90;53.10;;;;;;10455583;28;19972;-25
2023/04/21 20:09:51;;;;;;;7.25;3.60;;;23.90;53.20;;;;;;10465349;28;20045;-26
2023/04/21 20:14:53;;;;;;;9.98;3.08;;;23.10;54.30;;;;;;10469895;28;20148;-26
2023/04/21 20:19:56;;;;;;;;;;;23.30;53.40;;;;;;10471147;28;20068;-26
2023/04/21 20:24:58;;;;;;;6.25;2.92;;;22.20;54.90;;;;;;10469977;28;20007;-25
2023/04/21 20:30:00;;;;;;;;;;;22.10;56.20;;;;;;10478094;28;20054;-24
2023/04/21 20:35:04;;;;;;;14.05;3.47;;;23.20;54.10;;;;;;10474523;28;20522;-24
2023/04/21 20:40:10;;;;;;;5.40;2.10;;;23.20;53.20;;;;;;10472600;28;20040;-25
2023/04/21 20:45:12;;;;;;;6.57;2.22;;;23.40;53.20;;;;;;10474258;28;20052;-24
2023/04/21 20:50:15;;;;;;;;;;;23.40;53.20;;;;;;10476649;28;20159;-24
2023/04/21 20:55:17;;;;;;;9.93;3.05;;;23.40;53.30;;;;;;10465481;28;19970;-24
2023/04/21 21:00:19;;;;;;;5.53;2.05;;;23.30;53.00;;;;;;10470253;28;20146;-24
2023/04/21 21:05:22;;;;;;;;;;;23.20;53.20;;;;;;10468678;28;20097;-25
2023/04/21 21:10:24;;;;;;;9.85;2.17;;;23.10;53.30;;;;;;10460010;28;20454;-24
2023/04/21 21:15:26;;;;;;;11.57;2.88;;;23.20;53.30;;;;;;10472045;28;20053;-26
2023/04/21 21:20:29;;;;;;;5.05;2.28;;;23.10;53.00;;;;;;10480592;28;20047;-28
2023/04/21 21:25:31;;;;;;;11.65;2.30;;;23.10;53.30;;;;;;10488897;28;20068;-24
2023/04/21 21:30:33;;;;;;;10.85;2.58;;;23.10;53.10;;;;;;10479745;28;20056;-24
2023/04/21 21:35:36;;;;;;;;;;;23.00;53.10;;;;;;10481037;28;20783;-23
2023/04/21 21:40:38;;;;;;;15.30;2.72;;;23.00;53.30;;;;;;10491659;28;19925;-26
2023/04/21 21:45:40;;;;;;;6.78;2.53;;;22.90;53.30;;;;;;10471265;28;20080;-25
2023/04/21 21:50:43;;;;;;;7.82;2.20;;;22.90;53.30;;;;;;10485369;28;20641;-25
2023/04/21 21:55:45;;;;;;;9.40;2.58;;;22.90;53.40;;;;;;10487407;28;20056;-24
2023/04/21 22:00:50;;;;;;;;;;;22.80;53.30;;;;;;10485121;28;20052;-24
2023/04/21 22:05:53;;;;;;;6.05;1.83;;;22.80;53.50;;;;;;10485689;28;19925;-24
2023/04/21 22:10:55;;;;;;;7.60;2.20;;;22.70;53.70;;;;;;10484806;28;20129;-24
2023/04/21 22:15:57;;;;;;;6.32;2.33;;;22.70;53.80;;;;;;10469365;28;20497;-25
2023/04/21 22:21:01;;;;;;;8.57;3.17;;;22.70;53.90;;;;;;10454695;28;20470;-24
2023/04/21 22:26:03;;;;;;;6.25;2.83;;;22.60;53.90;;;;;;10480869;28;20068;-24
2023/04/21 22:31:05;;;;;;;;;;;22.60;54.00;;;;;;10456884;28;20045;-24
2023/04/21 22:36:08;;;;;;;9.05;3.90;;;22.60;53.90;;;;;;10485289;28;19924;-25
2023/04/21 22:41:10;;;;;;;5.25;2.85;;;22.50;54.10;;;;;;10486015;28;20044;-24
2023/04/21 22:46:12;;;;;;;8.30;3.75;;;22.50;54.20;;;;;;10483522;28;20565;-25
2023/04/21 22:51:17;;;;;;;7.57;3.85;;;22.40;54.10;;;;;;10459775;28;20053;-24
2023/04/21 22:56:18;;;;;;;5.57;2.45;;;22.40;54.10;;;;;;10474283;28;20143;-25
2023/04/21 23:01:21;;;;;;;9.15;2.42;;;22.30;54.30;;;;;;10479945;28;20144;-25
2023/04/21 23:06:24;;;;;;;4.40;2.03;;;22.30;54.20;;;;;;10463431;28;20053;-25
2023/04/21 23:11:26;;;;;;;4.07;1.80;;;22.30;54.20;;;;;;10475951;28;20091;-24
2023/04/21 23:16:28;;;;;;;4.93;2.05;;;22.20;54.20;;;;;;10466442;28;20068;-24
2023/04/21 23:21:31;;;;;;;8.57;2.30;;;22.20;54.20;;;;;;10474972;28;20530;-24
2023/04/21 23:26:33;;;;;;;7.20;1.58;;;22.20;54.70;;;;;;10486295;28;20540;-24
2023/04/21 23:31:35;;;;;;;4.47;1.58;;;22.10;54.30;;;;;;10474932;28;20438;-24
2023/04/21 23:36:38;;;;;;;2.88;1.48;;;22.00;54.30;;;;;;10482430;28;20068;-24
2023/04/21 23:41:40;;;;;;;2.72;1.80;;;22.00;54.40;;;;;;10472471;28;20084;-23
2023/04/21 23:46:42;;;;;;;;;;;22.00;54.40;;;;;;10477326;28;20064;-24
2023/04/21 23:51:45;;;;;;;4.23;2.30;;;21.90;54.40;;;;;;10489211;28;19966;-23
2023/04/21 23:56:47;;;;;;;5.13;2.20;;;21.90;54.50;;;;;;10491021;28;20128;-22
